Time;durP1;ratioP1;P1;durP2;ratioP2;P2;SDS_P1;SDS_P2;PMS_P1;PMS_P2;Temp;Humidity;BMP_temperature;BMP_pressure;BME280_temperature;BME280_humidity;BME280_pressure;Samples;Min_cycle;Max_cycle;Signal;HPM_P1;HPM_P2
2023/04/07 00:01:57;;;;;;;21.17;15.70;;;3.80;99.90;;;;;;5093440;28;20250;-76
2023/04/07 00:04:23;;;;;;;22.93;15.57;;;3.80;99.90;;;;;;5093611;28;20223;-75
2023/04/07 00:06:50;;;;;;;23.53;16.57;;;3.80;99.90;;;;;;5093121;28;20234;-75
2023/04/07 00:09:17;;;;;;;21.50;16.13;;;3.90;99.90;;;;;;5093382;28;20231;-74
2023/04/07 00:11:45;;;;;;;21.37;16.17;;;3.90;99.90;;;;;;5093349;28;20669;-74
2023/04/07 00:14:11;;;;;;;22.33;16.53;;;3.90;99.90;;;;;;5093169;28;20203;-75
2023/04/07 00:16:38;;;;;;;24.43;16.13;;;3.90;99.90;;;;;;5093326;28;20203;-75
2023/04/07 00:19:04;;;;;;;19.67;15.00;;;3.90;99.90;;;;;;5093433;28;20591;-74
2023/04/07 00:21:31;;;;;;;19.53;15.47;;;3.90;99.90;;;;;;5093054;28;20265;-75
2023/04/07 00:23:58;;;;;;;22.03;16.43;;;3.90;99.90;;;;;;5092977;28;20271;-74
2023/04/07 00:26:27;;;;;;;21.40;16.60;;;4.00;99.90;;;;;;5092968;28;20581;-74
2023/04/07 00:28:55;;;;;;;24.23;16.17;;;4.00;99.90;;;;;;5093430;28;20206;-74
2023/04/07 00:31:22;;;;;;;23.37;16.20;;;4.00;99.90;;;;;;5093094;28;20192;-74
2023/04/07 00:33:48;;;;;;;21.83;16.33;;;4.00;99.90;;;;;;5092861;28;20282;-74
2023/04/07 00:36:15;;;;;;;23.37;16.03;;;4.00;99.90;;;;;;5093048;28;20199;-74
2023/04/07 00:38:42;;;;;;;19.20;16.00;;;4.00;99.90;;;;;;5092637;28;20196;-75
2023/04/07 00:41:08;;;;;;;21.93;16.23;;;4.00;99.90;;;;;;5092780;28;20241;-74
2023/04/07 00:43:35;;;;;;;20.93;16.03;;;4.00;99.90;;;;;;5092824;28;20267;-74
2023/04/07 00:46:03;;;;;;;23.83;15.90;;;4.00;99.90;;;;;;5093036;28;20224;-75
2023/04/07 00:48:30;;;;;;;19.67;15.40;;;4.10;99.90;;;;;;5092766;28;20192;-75
2023/04/07 00:50:57;;;;;;;21.57;14.87;;;4.10;99.90;;;;;;5092838;28;20283;-74
2023/04/07 00:53:24;;;;;;;23.23;16.00;;;4.00;99.90;;;;;;5096053;28;20228;-74
2023/04/07 00:55:50;;;;;;;27.10;16.17;;;4.10;99.90;;;;;;5097040;28;20230;-74
2023/04/07 00:58:17;;;;;;;20.70;15.83;;;4.00;99.90;;;;;;5097174;28;20224;-74
2023/04/07 01:00:49;;;;;;;20.93;16.20;;;4.10;99.90;;;;;;5096917;28;20220;-74
2023/04/07 01:03:20;;;;;;;25.87;16.07;;;4.10;99.90;;;;;;5096816;28;20227;-74
2023/04/07 01:05:55;;;;;;;22.47;15.90;;;4.10;99.90;;;;;;5096741;28;20200;-74
2023/04/07 01:08:29;;;;;;;20.67;15.57;;;3.90;99.90;;;;;;5096809;28;20206;-74
2023/04/07 01:11:02;;;;;;;23.13;16.17;;;3.90;99.90;;;;;;5096837;28;20261;-75
2023/04/07 01:13:34;;;;;;;22.50;15.47;;;4.00;99.90;;;;;;5096738;28;20542;-74
2023/04/07 01:16:03;;;;;;;21.80;15.00;;;3.90;99.90;;;;;;5096835;28;20200;-75
2023/04/07 01:18:35;;;;;;;18.50;14.27;;;3.80;99.90;;;;;;5096464;28;20227;-74
2023/04/07 01:21:05;;;;;;;21.83;15.53;;;3.80;99.90;;;;;;5096796;28;20228;-73
2023/04/07 01:23:48;;;;;;;18.63;14.47;;;3.80;99.90;;;;;;5096527;28;20254;-74
2023/04/07 01:26:20;;;;;;;22.50;15.47;;;3.80;99.90;;;;;;5096467;28;20211;-74
2023/04/07 01:29:04;;;;;;;19.53;15.20;;;3.90;99.90;;;;;;5096480;28;20720;-74
2023/04/07 01:31:34;;;;;;;19.83;14.93;;;3.90;99.90;;;;;;5096375;28;20221;-74
2023/04/07 01:34:03;;;;;;;20.47;14.87;;;3.80;99.90;;;;;;5096266;28;20231;-74
2023/04/07 01:36:32;;;;;;;21.17;15.27;;;3.90;99.90;;;;;;5096250;28;20305;-74
2023/04/07 01:38:59;;;;;;;19.10;15.13;;;3.90;99.90;;;;;;5096132;28;20605;-74
2023/04/07 01:41:27;;;;;;;17.87;14.47;;;3.90;99.90;;;;;;5096091;28;20563;-74
2023/04/07 01:43:55;;;;;;;22.47;15.07;;;3.90;99.90;;;;;;5096241;28;20274;-74
2023/04/07 01:46:21;;;;;;;22.83;15.40;;;3.90;99.90;;;;;;5096084;28;20204;-74
2023/04/07 01:48:51;;;;;;;20.13;14.77;;;3.90;99.90;;;;;;5096103;28;20196;-74
2023/04/07 01:51:19;;;;;;;21.50;14.33;;;3.80;99.90;;;;;;5096027;28;20199;-74
2023/04/07 01:53:47;;;;;;;23.27;15.10;;;3.90;99.90;;;;;;5095871;28;20231;-73
2023/04/07 01:56:14;;;;;;;18.53;14.60;;;3.90;99.90;;;;;;5095745;28;20230;-75
2023/04/07 01:58:40;;;;;;;20.77;14.97;;;4.00;99.90;;;;;;5095871;28;20232;-75
2023/04/07 02:01:07;;;;;;;21.50;15.10;;;3.90;99.90;;;;;;5095858;28;20614;-75
2023/04/07 02:03:40;;;;;;;20.50;15.27;;;4.00;99.90;;;;;;5094619;28;20251;-75
2023/04/07 02:06:10;;;;;;;22.37;15.80;;;4.00;99.90;;;;;;5096078;28;20240;-75
2023/04/07 02:08:45;;;;;;;22.30;15.60;;;4.00;99.90;;;;;;5095212;28;20702;-74
2023/04/07 02:11:13;;;;;;;21.13;16.10;;;4.10;99.90;;;;;;5095680;28;20221;-75
2023/04/07 02:13:42;;;;;;;18.73;14.73;;;4.10;99.90;;;;;;5095656;28;20232;-75
2023/04/07 02:16:10;;;;;;;22.83;16.17;;;4.20;99.90;;;;;;5095443;28;20201;-75
2023/04/07 02:18:37;;;;;;;21.80;15.77;;;4.20;99.90;;;;;;5095544;28;20200;-75
2023/04/07 02:21:05;;;;;;;18.43;14.47;;;4.20;99.90;;;;;;5095220;28;20239;-75
2023/04/07 02:23:35;;;;;;;20.03;14.97;;;4.20;99.90;;;;;;5095422;28;20261;-75
2023/04/07 02:26:01;;;;;;;18.20;13.70;;;4.20;99.90;;;;;;5095053;28;20227;-75
2023/04/07 02:28:28;;;;;;;19.03;14.30;;;4.30;99.90;;;;;;5095133;28;20729;-75
2023/04/07 02:30:55;;;;;;;17.83;13.53;;;4.30;99.90;;;;;;5095249;28;20251;-76
2023/04/07 02:33:21;;;;;;;16.90;12.23;;;4.40;99.90;;;;;;5095092;28;20291;-74
2023/04/07 02:35:48;;;;;;;18.33;12.60;;;4.50;99.90;;;;;;5095339;28;20250;-75
2023/04/07 02:38:14;;;;;;;16.20;11.97;;;4.50;99.90;;;;;;5095398;28;20239;-75
2023/04/07 02:40:42;;;;;;;16.60;12.37;;;4.60;99.90;;;;;;5095172;28;20286;-75
2023/04/07 02:43:09;;;;;;;17.03;11.87;;;4.70;99.90;;;;;;5094872;28;20220;-75
2023/04/07 02:45:36;;;;;;;15.20;11.67;;;4.70;99.90;;;;;;5094868;28;20203;-75
2023/04/07 02:48:02;;;;;;;16.50;11.63;;;4.80;99.90;;;;;;5094719;28;20235;-75
2023/04/07 02:50:29;;;;;;;15.73;10.40;;;4.80;99.90;;;;;;5094812;28;20813;-75
2023/04/07 02:52:56;;;;;;;15.93;10.50;;;4.80;99.90;;;;;;5094920;28;20228;-75
2023/04/07 02:55:22;;;;;;;13.37;9.47;;;4.90;99.90;;;;;;5094630;28;20734;-75
2023/04/07 02:57:50;;;;;;;14.27;10.23;;;5.10;99.90;;;;;;5094687;28;20221;-75
2023/04/07 03:00:17;;;;;;;14.00;9.23;;;5.10;99.90;;;;;;5094646;28;20232;-75
2023/04/07 03:02:43;;;;;;;12.90;9.37;;;5.10;99.90;;;;;;5094360;28;20258;-74
2023/04/07 03:05:10;;;;;;;10.73;8.90;;;5.20;99.90;;;;;;5094836;28;20192;-75
2023/04/07 03:07:37;;;;;;;9.83;8.30;;;5.20;99.90;;;;;;5094570;28;20231;-75
2023/04/07 03:10:04;;;;;;;10.03;8.70;;;5.20;99.90;;;;;;5094505;28;20266;-75
2023/04/07 03:12:31;;;;;;;11.67;9.00;;;5.30;99.90;;;;;;5094378;28;20674;-75
2023/04/07 03:14:59;;;;;;;12.97;9.73;;;5.30;99.90;;;;;;5094145;28;20200;-75
2023/04/07 03:17:25;;;;;;;14.20;9.23;;;5.30;99.90;;;;;;5094039;28;20233;-74
2023/04/07 03:19:52;;;;;;;12.10;8.63;;;5.30;99.90;;;;;;5094312;28;20224;-75
2023/04/07 03:22:18;;;;;;;12.33;9.70;;;5.20;99.90;;;;;;5094194;28;20239;-75
2023/04/07 03:24:45;;;;;;;11.17;8.83;;;5.20;99.90;;;;;;5094128;28;20260;-76
2023/04/07 03:27:12;;;;;;;11.80;9.13;;;5.20;99.90;;;;;;5094100;28;20628;-74
2023/04/07 03:29:38;;;;;;;13.00;9.43;;;5.20;99.90;;;;;;5097357;28;20223;-74
2023/04/07 03:32:06;;;;;;;12.93;10.07;;;5.30;99.90;;;;;;5094024;28;20249;-75
2023/04/07 03:34:33;;;;;;;14.63;9.83;;;5.20;99.90;;;;;;5094139;28;20275;-74
2023/04/07 03:36:59;;;;;;;14.07;10.63;;;5.30;99.90;;;;;;5094008;28;20196;-74
2023/04/07 03:39:26;;;;;;;13.07;9.40;;;5.30;99.90;;;;;;5093864;28;20702;-75
2023/04/07 03:41:52;;;;;;;12.63;9.37;;;5.40;99.90;;;;;;5094120;28;20197;-74
2023/04/07 03:44:19;;;;;;;13.83;10.03;;;5.40;99.90;;;;;;5093644;28;20251;-75
2023/04/07 03:46:47;;;;;;;12.13;10.07;;;5.40;99.90;;;;;;5093990;28;20228;-75
2023/04/07 03:49:15;;;;;;;15.50;9.87;;;5.40;99.90;;;;;;5093756;28;20230;-75
2023/04/07 03:51:41;;;;;;;14.83;9.83;;;5.30;99.90;;;;;;5093532;28;20655;-75
2023/04/07 03:54:08;;;;;;;12.43;9.67;;;5.30;99.90;;;;;;5093524;28;20228;-74
2023/04/07 03:56:36;;;;;;;13.60;10.27;;;5.30;99.90;;;;;;5093449;28;20196;-75
2023/04/07 03:59:02;;;;;;;14.10;10.50;;;5.30;99.90;;;;;;5093324;28;20287;-76
2023/04/07 04:01:30;;;;;;;12.97;10.47;;;5.30;99.90;;;;;;5093499;28;20196;-75
2023/04/07 04:03:56;;;;;;;14.90;11.27;;;5.30;99.90;;;;;;5093376;28;20255;-75
2023/04/07 04:06:25;;;;;;;14.97;11.73;;;5.30;99.90;;;;;;5093098;28;20227;-75
2023/04/07 04:08:52;;;;;;;16.37;12.53;;;5.30;99.90;;;;;;5093093;28;20683;-75
2023/04/07 04:11:18;;;;;;;17.57;12.83;;;5.20;99.90;;;;;;5093210;28;20244;-75
2023/04/07 04:13:45;;;;;;;17.30;13.53;;;5.20;99.90;;;;;;5093373;28;20231;-75
2023/04/07 04:16:12;;;;;;;16.93;13.80;;;5.10;99.90;;;;;;5093069;28;20201;-74
2023/04/07 04:18:38;;;;;;;20.53;14.00;;;5.00;99.90;;;;;;5093243;28;20520;-75
2023/04/07 04:21:05;;;;;;;17.33;13.43;;;5.00;99.90;;;;;;5093213;28;20239;-75
2023/04/07 04:23:33;;;;;;;22.73;14.40;;;5.00;99.90;;;;;;5093252;28;20302;-74
2023/04/07 04:26:02;;;;;;;20.10;14.13;;;5.00;99.90;;;;;;5092822;28;20235;-75
2023/04/07 04:28:29;;;;;;;18.87;14.57;;;5.00;99.90;;;;;;5092821;28;20204;-75
2023/04/07 04:30:56;;;;;;;19.10;15.07;;;4.90;99.90;;;;;;5092998;28;20278;-75
2023/04/07 04:33:22;;;;;;;19.50;15.13;;;4.80;99.90;;;;;;5092799;28;20235;-75
2023/04/07 04:35:49;;;;;;;17.53;14.43;;;4.80;99.90;;;;;;5092903;28;20228;-75
2023/04/07 04:38:16;;;;;;;22.03;14.53;;;4.90;99.90;;;;;;5092980;28;20592;-74
2023/04/07 04:40:44;;;;;;;18.00;14.40;;;4.80;99.90;;;;;;5092841;28;20200;-74
2023/04/07 04:43:11;;;;;;;23.43;15.37;;;4.80;99.90;;;;;;5092665;28;20705;-75
2023/04/07 04:45:37;;;;;;;19.60;15.27;;;4.80;99.90;;;;;;5093081;28;20227;-74
2023/04/07 04:48:05;;;;;;;22.17;14.93;;;4.80;99.90;;;;;;5092958;28;20227;-75
2023/04/07 04:50:31;;;;;;;20.77;14.90;;;4.70;99.90;;;;;;5092800;28;20597;-74
2023/04/07 04:52:58;;;;;;;20.00;14.83;;;4.80;99.90;;;;;;5092993;28;20200;-74
2023/04/07 04:55:24;;;;;;;19.30;14.30;;;4.70;99.90;;;;;;5092736;28;20235;-75
2023/04/07 04:57:52;;;;;;;19.33;13.27;;;4.80;99.90;;;;;;5093079;28;20192;-74
2023/04/07 05:00:20;;;;;;;18.17;14.17;;;4.80;99.90;;;;;;5092640;28;20242;-75
2023/04/07 05:02:47;;;;;;;18.67;14.23;;;4.90;99.90;;;;;;5092791;28;20627;-74
2023/04/07 05:05:13;;;;;;;19.33;14.67;;;4.90;99.90;;;;;;5092668;28;20224;-74
2023/04/07 05:07:40;;;;;;;19.67;14.50;;;4.90;99.90;;;;;;5092720;28;20239;-75
2023/04/07 05:10:08;;;;;;;20.13;15.03;;;4.90;99.90;;;;;;5092784;28;20291;-74
2023/04/07 05:12:35;;;;;;;19.23;14.47;;;5.00;99.90;;;;;;5092848;28;20231;-75
2023/04/07 05:15:04;;;;;;;19.20;14.63;;;5.00;99.90;;;;;;5092476;28;20720;-74
2023/04/07 05:17:30;;;;;;;22.23;15.53;;;5.00;99.90;;;;;;5092309;28;20232;-75
2023/04/07 05:19:57;;;;;;;22.03;14.37;;;5.00;99.90;;;;;;5092463;28;20234;-74
2023/04/07 05:22:23;;;;;;;20.60;15.07;;;5.10;99.90;;;;;;5092483;28;20589;-74
2023/04/07 05:24:50;;;;;;;22.03;15.33;;;5.10;99.90;;;;;;5092502;28;20289;-74
2023/04/07 05:27:17;;;;;;;23.00;16.07;;;5.10;99.90;;;;;;5092398;28;20675;-74
2023/04/07 05:29:43;;;;;;;21.87;16.67;;;5.20;99.90;;;;;;5092757;28;20235;-75
2023/04/07 05:32:11;;;;;;;19.90;15.33;;;5.10;99.90;;;;;;5092586;28;20228;-74
2023/04/07 05:34:38;;;;;;;21.07;16.70;;;5.10;99.90;;;;;;5092281;28;20267;-74
2023/04/07 05:37:05;;;;;;;20.67;15.97;;;5.10;99.90;;;;;;5092283;28;20705;-74
2023/04/07 05:39:32;;;;;;;20.17;16.00;;;5.20;99.90;;;;;;5095724;28;20200;-75
2023/04/07 05:41:58;;;;;;;20.83;16.27;;;5.20;99.90;;;;;;5096272;28;20196;-75
2023/04/07 05:44:25;;;;;;;20.43;15.17;;;5.20;99.90;;;;;;5096052;28;20262;-75
2023/04/07 05:46:51;;;;;;;21.00;16.17;;;5.30;99.90;;;;;;5096086;28;20333;-74
2023/04/07 05:49:19;;;;;;;20.97;16.07;;;5.30;99.90;;;;;;5096048;28;20228;-74
2023/04/07 05:51:46;;;;;;;22.57;16.93;;;5.30;99.90;;;;;;5096178;28;20236;-75
2023/04/07 05:54:12;;;;;;;20.67;16.87;;;5.40;99.90;;;;;;5096104;28;20235;-75
2023/04/07 05:56:39;;;;;;;21.97;16.70;;;5.40;99.90;;;;;;5096068;28;20235;-74
2023/04/07 05:59:06;;;;;;;19.70;15.87;;;5.40;99.90;;;;;;5095796;28;20651;-75
2023/04/07 06:01:32;;;;;;;20.57;15.87;;;5.40;99.90;;;;;;5095794;28;20234;-75
2023/04/07 06:04:00;;;;;;;23.03;16.20;;;5.40;99.90;;;;;;5095763;28;20224;-75
2023/04/07 06:06:28;;;;;;;19.83;15.97;;;5.40;99.90;;;;;;5095607;28;20290;-75
2023/04/07 06:08:54;;;;;;;20.07;15.53;;;5.50;99.90;;;;;;5095658;28;20224;-76
2023/04/07 06:11:22;;;;;;;20.40;15.30;;;5.60;99.90;;;;;;5095681;28;20660;-75
2023/04/07 06:13:48;;;;;;;21.13;15.80;;;5.70;99.90;;;;;;5095656;28;20208;-75
2023/04/07 06:16:15;;;;;;;22.23;17.67;;;5.70;99.90;;;;;;5095621;28;20611;-75
2023/04/07 06:18:41;;;;;;;22.13;17.23;;;5.70;99.90;;;;;;5095811;28;20223;-75
2023/04/07 06:21:08;;;;;;;21.00;16.67;;;5.70;99.90;;;;;;5095719;28;20204;-75
2023/04/07 06:23:36;;;;;;;21.37;16.90;;;5.70;99.90;;;;;;5095413;28;20197;-76
2023/04/07 06:26:03;;;;;;;26.30;15.83;;;5.80;99.90;;;;;;5095413;28;20239;-75
2023/04/07 06:28:29;;;;;;;22.93;16.50;;;5.90;99.90;;;;;;5095620;28;20224;-75
2023/04/07 06:30:56;;;;;;;21.60;16.63;;;5.80;99.90;;;;;;5095120;28;20620;-74
2023/04/07 06:33:24;;;;;;;19.87;15.47;;;5.90;99.90;;;;;;5095236;28;20228;-76
2023/04/07 06:35:51;;;;;;;18.87;15.70;;;6.00;99.90;;;;;;5095291;28;20206;-78
2023/04/07 06:38:18;;;;;;;18.40;14.50;;;6.10;99.90;;;;;;5095441;28;20200;-76
2023/04/07 06:40:46;;;;;;;19.00;14.80;;;6.10;99.90;;;;;;5095165;28;20196;-74
2023/04/07 06:43:12;;;;;;;18.80;15.23;;;6.20;99.90;;;;;;5094704;28;20221;-75
2023/04/07 06:45:39;;;;;;;18.53;15.03;;;6.30;99.90;;;;;;5094741;28;20260;-76
2023/04/07 06:48:06;;;;;;;18.13;15.00;;;6.50;99.90;;;;;;5095032;28;20561;-77
2023/04/07 06:50:33;;;;;;;17.43;14.90;;;6.60;99.90;;;;;;5094337;28;20232;-76
2023/04/07 06:52:59;;;;;;;18.70;15.57;;;6.70;99.90;;;;;;5094823;28;20235;-77
2023/04/07 06:55:26;;;;;;;19.17;14.70;;;6.70;99.90;;;;;;5094642;28;20580;-76
2023/04/07 06:57:54;;;;;;;16.87;13.97;;;6.90;99.90;;;;;;5094564;28;20647;-76
2023/04/07 07:00:22;;;;;;;17.80;14.53;;;6.90;99.90;;;;;;5094668;28;20588;-77
2023/04/07 07:02:49;;;;;;;17.27;14.13;;;7.00;99.90;;;;;;5094743;28;20201;-76
2023/04/07 07:05:16;;;;;;;20.60;14.73;;;7.20;99.90;;;;;;5094651;28;20259;-77
2023/04/07 07:07:42;;;;;;;16.23;13.30;;;7.20;99.90;;;;;;5094562;28;20231;-77
2023/04/07 07:10:10;;;;;;;16.00;13.53;;;7.30;99.90;;;;;;5094434;28;20224;-76
2023/04/07 07:12:37;;;;;;;17.53;14.27;;;7.30;99.90;;;;;;5094394;28;20228;-80
2023/04/07 07:15:06;;;;;;;18.80;14.03;;;7.50;99.90;;;;;;5094612;28;20269;-76
2023/04/07 07:17:33;;;;;;;14.77;12.77;;;7.50;99.90;;;;;;5094184;28;20232;-77
2023/04/07 07:20:00;;;;;;;18.80;13.43;;;7.50;99.90;;;;;;5094274;28;20694;-77
2023/04/07 07:22:27;;;;;;;14.20;12.70;;;7.50;99.90;;;;;;5094388;28;20656;-76
2023/04/07 07:24:53;;;;;;;14.47;12.97;;;7.70;99.90;;;;;;5094214;28;20248;-75
2023/04/07 07:27:20;;;;;;;16.27;13.87;;;7.70;99.90;;;;;;5094177;28;20224;-75
2023/04/07 07:29:46;;;;;;;17.97;13.53;;;7.90;99.90;;;;;;5094245;28;20239;-76
2023/04/07 07:32:14;;;;;;;15.57;12.57;;;8.00;99.90;;;;;;5094029;28;20257;-76
2023/04/07 07:34:41;;;;;;;16.13;13.30;;;8.20;99.90;;;;;;5093734;28;20240;-76
2023/04/07 07:37:08;;;;;;;14.67;12.33;;;8.20;99.90;;;;;;5093913;28;20686;-75
2023/04/07 07:39:34;;;;;;;15.90;13.00;;;8.30;99.90;;;;;;5093859;28;20200;-75
2023/04/07 07:42:01;;;;;;;15.10;12.73;;;8.40;99.90;;;;;;5093756;28;20207;-75
2023/04/07 07:44:28;;;;;;;16.10;13.30;;;8.50;99.90;;;;;;5093874;28;20251;-76
2023/04/07 07:46:54;;;;;;;14.87;12.40;;;8.50;99.90;;;;;;5093898;28;20235;-75
2023/04/07 07:49:22;;;;;;;15.67;13.03;;;8.70;99.90;;;;;;5093950;28;20683;-74
2023/04/07 07:51:49;;;;;;;14.83;12.47;;;8.70;99.90;;;;;;5093582;28;20235;-75
2023/04/07 07:54:15;;;;;;;14.70;13.20;;;8.70;99.90;;;;;;5093844;28;20228;-75
2023/04/07 07:56:42;;;;;;;14.97;13.37;;;8.90;99.90;;;;;;5093797;28;20231;-76
2023/04/07 07:59:08;;;;;;;14.77;12.63;;;9.00;99.90;;;;;;5093112;28;20619;-76
2023/04/07 08:01:35;;;;;;;14.40;12.53;;;9.00;99.90;;;;;;5092694;28;20228;-76
2023/04/07 08:04:02;;;;;;;14.00;12.03;;;9.10;99.90;;;;;;5093313;28;20600;-78
2023/04/07 08:06:31;;;;;;;14.50;12.63;;;9.10;99.90;;;;;;5093061;28;20208;-75
2023/04/07 08:08:58;;;;;;;14.10;12.50;;;8.90;99.90;;;;;;5093481;28;20199;-76
2023/04/07 08:11:25;;;;;;;14.70;12.23;;;9.00;99.90;;;;;;5093523;28;20208;-76
2023/04/07 08:13:52;;;;;;;16.07;12.60;;;9.00;99.90;;;;;;5093260;28;20768;-77
2023/04/07 08:16:20;;;;;;;14.03;12.53;;;9.10;99.90;;;;;;5093486;28;20211;-75
2023/04/07 08:18:47;;;;;;;14.97;12.67;;;9.20;99.90;;;;;;5087161;28;20193;-76
2023/04/07 08:21:14;;;;;;;13.60;12.20;;;9.50;99.90;;;;;;5089625;28;20660;-77
2023/04/07 08:23:42;;;;;;;13.73;12.20;;;9.50;99.90;;;;;;5092403;28;20192;-77
2023/04/07 08:26:09;;;;;;;14.00;12.50;;;9.80;99.90;;;;;;5093309;28;20263;-76
2023/04/07 08:28:35;;;;;;;14.20;12.50;;;10.10;99.90;;;;;;5093054;28;20227;-76
2023/04/07 08:31:02;;;;;;;13.30;12.00;;;10.30;99.90;;;;;;5093083;28;20224;-78
2023/04/07 08:33:28;;;;;;;13.43;12.00;;;10.40;99.90;;;;;;5092284;28;20220;-77
2023/04/07 08:35:55;;;;;;;14.00;12.60;;;10.80;99.90;;;;;;5092764;28;20231;-78
2023/04/07 08:38:22;;;;;;;14.17;12.17;;;10.70;99.90;;;;;;5092606;28;20196;-77
2023/04/07 08:40:58;;;;;;;14.20;12.70;;;10.80;99.90;;;;;;5092841;28;20235;-78
2023/04/07 08:43:26;;;;;;;23.97;18.70;;;10.60;99.90;;;;;;5092640;28;20231;-77
2023/04/07 08:45:56;;;;;;;16.90;13.20;;;10.80;99.90;;;;;;5092728;28;20275;-77
2023/04/07 08:48:25;;;;;;;14.80;12.27;;;11.00;99.90;;;;;;5091845;28;20228;-77
2023/04/07 08:50:53;;;;;;;13.07;11.73;;;11.30;99.90;;;;;;5091140;28;20230;-78
2023/04/07 08:53:26;;;;;;;14.13;12.47;;;11.60;99.90;;;;;;5089391;28;20562;-78
2023/04/07 08:55:55;;;;;;;12.50;11.20;;;11.60;99.90;;;;;;5072396;28;20228;-78
2023/04/07 08:58:22;;;;;;;12.07;10.77;;;11.90;99.90;;;;;;5073218;28;20247;-76
2023/04/07 09:00:50;;;;;;;13.30;12.00;;;11.80;99.90;;;;;;5092128;28;20236;-76
2023/04/07 09:03:17;;;;;;;13.10;11.40;;;11.50;99.90;;;;;;5092500;28;20247;-75
2023/04/07 09:05:45;;;;;;;12.97;11.67;;;11.10;99.90;;;;;;5092668;28;20259;-76
2023/04/07 09:08:11;;;;;;;13.93;12.53;;;11.10;99.90;;;;;;5092769;28;20254;-76
2023/04/07 09:10:38;;;;;;;14.97;13.37;;;11.00;99.90;;;;;;5092537;28;20550;-76
2023/04/07 09:13:06;;;;;;;16.20;12.67;;;11.30;99.90;;;;;;5093422;28;20273;-77
2023/04/07 09:15:33;;;;;;;13.20;11.60;;;11.10;99.90;;;;;;5096488;28;20220;-75
2023/04/07 09:17:59;;;;;;;12.60;11.33;;;10.90;99.90;;;;;;5096626;28;20250;-76
2023/04/07 09:20:26;;;;;;;13.07;10.97;;;11.20;99.90;;;;;;5096613;28;20216;-75
2023/04/07 09:22:53;;;;;;;14.30;11.87;;;11.20;99.90;;;;;;5096640;28;20697;-76
2023/04/07 09:25:22;;;;;;;13.53;12.13;;;11.40;99.90;;;;;;5095875;28;20251;-77
2023/04/07 09:27:59;;;;;;;12.80;11.30;;;11.10;99.90;;;;;;5095946;28;20208;-76
2023/04/07 09:30:29;;;;;;;12.43;11.13;;;11.50;99.90;;;;;;5096262;28;20201;-78
2023/04/07 09:32:56;;;;;;;12.67;10.70;;;11.90;99.90;;;;;;5096337;28;20200;-78
2023/04/07 09:35:23;;;;;;;12.27;10.80;;;11.40;99.90;;;;;;5096093;28;20760;-78
2023/04/07 09:38:04;;;;;;;12.70;11.50;;;10.90;99.90;;;;;;5096006;28;20202;-77
2023/04/07 09:40:31;;;;;;;12.83;11.47;;;11.10;99.90;;;;;;5095872;28;20197;-75
2023/04/07 09:42:58;;;;;;;14.27;11.77;;;10.70;99.90;;;;;;5096121;28;20619;-76
2023/04/07 09:45:26;;;;;;;13.73;12.20;;;10.60;99.90;;;;;;5095892;28;20224;-78
2023/04/07 09:47:53;;;;;;;12.50;11.07;;;10.60;99.90;;;;;;5095967;28;20211;-78
2023/04/07 09:50:32;;;;;;;13.20;11.90;;;10.70;99.90;;;;;;5095784;28;20200;-77
2023/04/07 09:53:00;;;;;;;11.87;10.50;;;10.80;99.90;;;;;;5096067;28;20191;-78
2023/04/07 09:55:28;;;;;;;13.97;10.73;;;10.70;99.90;;;;;;5096035;28;20201;-76
2023/04/07 09:57:55;;;;;;;14.07;11.40;;;10.90;99.90;;;;;;5095737;28;20525;-76
2023/04/07 10:00:22;;;;;;;13.27;11.17;;;11.10;99.90;;;;;;5096086;28;20758;-76
2023/04/07 10:02:51;;;;;;;15.43;11.80;;;11.50;99.90;;;;;;5095655;28;20227;-78
2023/04/07 10:05:20;;;;;;;11.30;10.07;;;12.00;99.90;;;;;;5095577;28;20223;-76
2023/04/07 10:07:46;;;;;;;15.43;12.90;;;11.90;99.90;;;;;;5075337;28;20284;-76
2023/04/07 10:10:13;;;;;;;12.43;11.23;;;12.40;99.90;;;;;;5075704;28;20251;-77
2023/04/07 10:12:41;;;;;;;12.53;11.23;;;12.50;99.90;;;;;;5110002;28;20222;-77
2023/04/07 10:15:11;;;;;;;11.70;10.47;;;12.40;99.90;;;;;;5102665;28;20270;-77
2023/04/07 10:17:40;;;;;;;12.02;10.82;;;12.60;99.90;;;;;;5095303;28;20228;-81
2023/04/07 10:20:10;;;;;;;11.77;10.43;;;13.00;99.90;;;;;;5095428;28;20288;-78
2023/04/07 10:22:38;;;;;;;12.87;10.60;;;12.90;99.90;;;;;;5095602;28;20644;-79
2023/04/07 10:25:09;;;;;;;11.90;10.70;;;12.90;99.90;;;;;;5094762;28;20216;-79
2023/04/07 10:27:48;;;;;;;11.20;9.60;;;12.70;99.90;;;;;;5095479;28;20228;-76
2023/04/07 10:30:18;;;;;;;12.73;11.33;;;12.90;99.90;;;;;;5095080;28;20560;-76
2023/04/07 10:32:48;;;;;;;12.07;10.77;;;13.00;99.90;;;;;;5092518;28;20188;-76
2023/04/07 10:35:16;;;;;;;12.95;11.43;;;13.10;99.90;;;;;;5095749;28;20731;-78
2023/04/07 10:38:12;;;;;;;12.93;10.80;;;12.50;99.90;;;;;;5108451;28;20195;-73
2023/04/07 10:40:40;;;;;;;12.20;10.90;;;12.40;99.90;;;;;;5116008;28;20210;-73
2023/04/07 10:43:10;;;;;;;12.57;10.87;;;12.50;99.90;;;;;;5115604;28;20200;-73
2023/04/07 10:45:55;;;;;;;12.67;11.17;;;12.30;99.90;;;;;;5102563;28;20256;-74
2023/04/07 10:48:22;;;;;;;11.97;10.77;;;12.30;99.90;;;;;;5095247;28;20269;-74
2023/04/07 10:51:14;;;;;;;13.03;11.63;;;12.00;99.90;;;;;;5094881;28;20192;-74
2023/04/07 10:54:24;;;;;;;12.47;11.20;;;12.20;99.90;;;;;;5096079;28;20197;-74
2023/04/07 10:57:13;;;;;;;12.47;10.23;;;12.30;99.90;;;;;;5090031;28;20200;-74
2023/04/07 10:59:42;;;;;;;12.00;10.80;;;12.20;99.90;;;;;;5088780;28;20207;-73
2023/04/07 11:02:33;;;;;;;11.63;10.27;;;12.40;99.90;;;;;;5095142;28;20197;-77
2023/04/07 11:05:01;;;;;;;10.93;9.80;;;12.20;99.90;;;;;;5094142;28;20192;-73
2023/04/07 11:07:47;;;;;;;13.57;11.20;;;12.50;99.90;;;;;;5094064;28;20694;-74
2023/04/07 11:10:15;;;;;;;12.00;9.80;;;12.70;99.90;;;;;;5074301;28;20224;-77
2023/04/07 11:12:42;;;;;;;11.40;10.37;;;12.80;99.90;;;;;;5074260;28;20205;-77
2023/04/07 11:15:20;;;;;;;11.73;10.50;;;13.00;99.90;;;;;;5091749;28;20560;-76
2023/04/07 11:17:47;;;;;;;12.10;10.80;;;13.10;99.90;;;;;;5094389;28;20200;-75
2023/04/07 11:20:14;;;;;;;12.13;10.90;;;13.10;99.90;;;;;;5094578;28;20200;-75
2023/04/07 11:22:40;;;;;;;13.48;10.60;;;13.30;99.90;;;;;;5094437;28;20207;-75
2023/04/07 11:25:22;;;;;;;11.75;10.52;;;13.40;99.90;;;;;;5094291;28;20196;-74
2023/04/07 11:27:48;;;;;;;11.40;9.95;;;14.00;99.90;;;;;;5094081;28;20200;-75
2023/04/07 11:30:17;;;;;;;11.18;10.05;;;14.50;99.90;;;;;;5094534;28;20200;-76
2023/04/07 11:32:48;;;;;;;10.73;9.73;;;15.20;99.90;;;;;;5093757;28;20274;-76
2023/04/07 11:35:15;;;;;;;11.15;10.00;;;15.70;99.90;;;;;;5093800;28;20228;-76
2023/04/07 11:37:42;;;;;;;12.32;9.85;;;15.90;99.90;;;;;;5093412;28;20563;-76
2023/04/07 11:40:10;;;;;;;11.88;10.68;;;16.00;98.30;;;;;;5093949;28;20254;-73
2023/04/07 11:42:39;;;;;;;11.18;10.07;;;17.00;97.10;;;;;;5093973;28;20200;-76
2023/04/07 11:45:15;;;;;;;11.13;9.77;;;17.90;94.30;;;;;;5093543;28;20271;-75
2023/04/07 11:47:42;;;;;;;10.70;9.70;;;18.20;91.70;;;;;;5094039;28;20261;-77
2023/04/07 11:50:09;;;;;;;10.68;9.70;;;18.30;86.90;;;;;;5094057;28;20235;-75
2023/04/07 11:52:41;;;;;;;10.32;9.32;;;18.60;83.40;;;;;;5093968;28;20231;-76
2023/04/07 11:55:17;;;;;;;10.57;9.68;;;18.70;81.00;;;;;;5093384;28;20196;-75
2023/04/07 11:57:45;;;;;;;10.98;9.98;;;18.40;82.40;;;;;;5093104;28;20216;-75
2023/04/07 12:00:14;;;;;;;10.02;9.05;;;18.50;82.50;;;;;;5093473;28;20231;-75
2023/04/07 12:02:41;;;;;;;10.90;9.98;;;18.50;79.50;;;;;;5093863;28;20687;-77
2023/04/07 12:05:10;;;;;;;10.38;9.15;;;18.10;80.20;;;;;;5093410;28;20591;-76
2023/04/07 12:07:37;;;;;;;9.57;8.73;;;17.80;78.90;;;;;;5093399;28;20618;-73
2023/04/07 12:10:18;;;;;;;10.80;9.80;;;17.40;80.90;;;;;;5093192;28;20200;-76
2023/04/07 12:12:47;;;;;;;9.75;8.85;;;16.70;78.80;;;;;;5093185;28;20230;-76
2023/04/07 12:15:15;;;;;;;10.57;9.57;;;16.60;81.60;;;;;;5093414;28;20234;-76
2023/04/07 12:17:46;;;;;;;10.02;9.02;;;16.60;81.40;;;;;;5093248;28;20226;-78
2023/04/07 12:20:13;;;;;;;12.55;11.25;;;15.90;82.60;;;;;;5093352;28;20200;-76
2023/04/07 12:22:40;;;;;;;10.20;9.30;;;15.90;83.50;;;;;;5093145;28;20207;-76
2023/04/07 12:25:07;;;;;;;11.88;10.75;;;16.20;81.10;;;;;;5092899;28;20656;-76
2023/04/07 12:27:34;;;;;;;11.05;10.05;;;15.70;83.30;;;;;;5093089;28;20644;-77
2023/04/07 12:30:03;;;;;;;11.40;10.18;;;15.60;82.50;;;;;;5091938;28;20196;-77
2023/04/07 12:32:31;;;;;;;11.30;10.18;;;15.70;83.30;;;;;;5080549;28;20192;-76
2023/04/07 12:34:58;;;;;;;12.05;10.70;;;15.40;80.70;;;;;;5092363;28;20722;-77
2023/04/07 12:37:24;;;;;;;10.27;9.27;;;15.20;82.20;;;;;;5092496;28;20231;-75
2023/04/07 12:39:51;;;;;;;10.63;9.63;;;15.40;81.90;;;;;;5092305;28;20690;-76
2023/04/07 12:42:18;;;;;;;10.35;9.45;;;15.20;80.80;;;;;;5092512;28;20215;-75